createdAt,value
2022-08-09T00:04:03.548Z,4.82
2022-08-09T00:09:08.257Z,4.45
2022-08-09T00:14:08.591Z,5.00
2022-08-09T00:19:10.316Z,5.43
2022-08-09T00:24:08.105Z,4.95
2022-08-09T00:29:39.583Z,5.35
2022-08-09T00:34:33.426Z,4.97
2022-08-09T00:40:12.713Z,5.35
2022-08-09T00:44:48.969Z,5.40
2022-08-09T00:49:54.540Z,6.18
2022-08-09T00:54:55.362Z,6.47
2022-08-09T00:59:54.231Z,6.00
2022-08-09T01:04:58.048Z,5.82
2022-08-09T01:10:02.688Z,6.28
2022-08-09T01:15:06.075Z,6.40
2022-08-09T01:20:27.003Z,6.77
2022-08-09T01:26:01.766Z,6.50
2022-08-09T01:31:02.985Z,6.40
2022-08-09T01:36:07.252Z,7.15
2022-08-09T01:41:09.547Z,7.50
2022-08-09T01:46:09.840Z,8.15
2022-08-09T01:51:22.585Z,6.88
2022-08-09T01:56:22.151Z,6.50
2022-08-09T02:01:21.537Z,6.40
2022-08-09T02:06:58.669Z,6.95
2022-08-09T02:11:59.979Z,6.28
2022-08-09T02:17:59.159Z,5.97
2022-08-09T02:22:35.060Z,6.60
2022-08-09T02:27:58.139Z,6.47
2022-08-09T02:32:55.076Z,6.15
2022-08-09T02:37:57.907Z,7.00
2022-08-09T02:42:59.909Z,7.55
2022-08-09T02:48:02.891Z,7.47
2022-08-09T02:53:17.291Z,7.90
2022-08-09T02:58:36.945Z,7.82
2022-08-09T03:04:18.239Z,6.85
2022-08-09T03:08:57.258Z,7.68
2022-08-09T03:13:59.619Z,7.75
2022-08-09T03:19:01.609Z,8.10
2022-08-09T03:24:04.728Z,7.28
2022-08-09T03:29:02.539Z,7.07
2022-08-09T03:34:19.815Z,7.65
2022-08-09T03:39:20.074Z,6.88
2022-08-09T03:44:27.869Z,8.60
2022-08-09T03:49:35.665Z,6.68
2022-08-09T03:54:44.922Z,6.97
2022-08-09T03:59:52.827Z,7.47
2022-08-09T04:04:53.791Z,7.72
2022-08-09T04:09:53.725Z,7.68
2022-08-09T04:15:00.350Z,7.53
2022-08-09T04:20:02.535Z,7.18
2022-08-09T04:25:00.182Z,7.22
2022-08-09T04:29:58.684Z,8.00
2022-08-09T04:35:03.439Z,7.97
2022-08-09T04:40:02.295Z,7.97
2022-08-09T04:45:03.412Z,7.20
2022-08-09T04:50:07.032Z,7.95
2022-08-09T04:55:17.547Z,9.10
2022-08-09T05:00:23.378Z,10.55
2022-08-09T05:05:31.769Z,9.97
2022-08-09T05:10:38.984Z,8.02
2022-08-09T05:15:39.307Z,9.02
2022-08-09T05:20:40.763Z,7.53
2022-08-09T05:25:45.074Z,8.10
2022-08-09T05:30:48.714Z,8.52
2022-08-09T05:35:50.869Z,7.95
2022-08-09T05:40:50.587Z,6.82
2022-08-09T05:45:55.857Z,8.63
2022-08-09T05:51:16.735Z,8.00
2022-08-09T05:56:37.775Z,8.35
2022-08-09T06:01:58.996Z,8.60
2022-08-09T06:06:56.488Z,8.00
2022-08-09T06:11:57.671Z,7.22
2022-08-09T06:16:55.490Z,6.65
2022-08-09T06:21:58.393Z,8.02
2022-08-09T06:26:59.164Z,9.52
2022-08-09T06:32:24.620Z,8.02
2022-08-09T06:37:13.394Z,7.85
2022-08-09T06:42:11.608Z,7.38
2022-08-09T06:47:09.019Z,8.25
2022-08-09T06:52:06.662Z,7.57
2022-08-09T06:57:08.911Z,7.20
2022-08-09T07:02:11.496Z,7.38
2022-08-09T07:07:59.626Z,7.10
2022-08-09T07:13:05.425Z,6.28
2022-08-09T07:18:23.388Z,6.20
2022-08-09T07:23:22.844Z,5.93
2022-08-09T07:28:28.278Z,6.18
2022-08-09T07:33:26.524Z,5.72
2022-08-09T07:38:31.023Z,5.87
2022-08-09T07:43:41.154Z,5.30
2022-08-09T07:50:07.670Z,5.13
2022-08-09T07:55:41.465Z,5.80
2022-08-09T08:00:58.855Z,5.30
2022-08-09T08:06:09.580Z,6.40
2022-08-09T08:12:09.347Z,5.55
2022-08-09T08:17:07.630Z,5.68
2022-08-09T08:22:28.507Z,5.20
2022-08-09T08:27:27.043Z,5.28
2022-08-09T08:32:52.212Z,5.15
2022-08-09T08:38:11.416Z,4.70
2022-08-09T08:43:13.893Z,4.95
2022-08-09T08:48:31.739Z,4.82
2022-08-09T08:53:32.326Z,4.72
2022-08-09T08:58:38.946Z,4.72
2022-08-09T09:10:02.239Z,4.90
2022-08-09T09:15:33.735Z,4.82
2022-08-09T09:20:52.208Z,5.10
2022-08-09T09:26:16.709Z,5.45
2022-08-09T09:32:04.140Z,5.10
2022-08-09T09:36:39.202Z,4.60
2022-08-09T09:41:49.906Z,4.95
2022-08-09T09:47:00.062Z,4.72
2022-08-09T09:58:03.949Z,4.40
2022-08-09T10:03:09.219Z,4.32
2022-08-09T10:08:28.056Z,4.50
2022-08-09T10:13:43.236Z,4.20
2022-08-09T10:18:54.693Z,4.38
2022-08-09T10:24:01.143Z,4.28
2022-08-09T10:29:36.099Z,3.92
2022-08-09T10:34:33.528Z,4.63
2022-08-09T10:39:40.788Z,3.67
2022-08-09T10:44:55.062Z,3.63
2022-08-09T10:50:14.825Z,3.67
2022-08-09T10:55:23.569Z,3.60
2022-08-09T11:00:41.804Z,3.90
2022-08-09T11:06:19.930Z,3.92
2022-08-09T11:11:18.354Z,3.83
2022-08-09T11:16:37.310Z,2.90
2022-08-09T11:21:57.451Z,3.33
2022-08-09T11:28:05.486Z,3.60
2022-08-09T11:32:49.861Z,3.30
2022-08-09T11:37:50.343Z,3.38
2022-08-09T11:42:49.051Z,3.08
2022-08-09T11:47:47.702Z,3.47
2022-08-09T11:53:59.760Z,3.25
2022-08-09T11:58:48.172Z,3.17
2022-08-09T12:03:55.198Z,3.25
2022-08-09T12:09:21.133Z,3.38
2022-08-09T12:14:40.527Z,3.30
2022-08-09T12:20:27.902Z,2.95
2022-08-09T12:25:49.485Z,3.40
2022-08-09T12:31:57.955Z,3.27
2022-08-09T12:36:59.097Z,2.60
2022-08-09T12:42:25.803Z,2.85
2022-08-09T12:47:25.268Z,3.45
2022-08-09T12:52:22.426Z,3.05
2022-08-09T12:58:11.673Z,3.42
2022-08-09T13:03:57.054Z,2.97
2022-08-09T13:08:58.661Z,2.85
2022-08-09T13:14:37.029Z,3.70
2022-08-09T13:20:10.277Z,3.20
2022-08-09T13:24:54.354Z,2.88
2022-08-09T13:30:03.544Z,2.80
2022-08-09T13:35:01.603Z,3.45
2022-08-09T13:41:51.049Z,3.08
2022-08-09T13:45:17.984Z,2.83
2022-08-09T13:50:29.936Z,2.97
2022-08-09T13:55:29.177Z,3.50
2022-08-09T14:00:29.472Z,3.13
2022-08-09T14:05:59.912Z,3.55
2022-08-09T14:10:50.614Z,3.65
2022-08-09T14:16:09.756Z,3.72
2022-08-09T14:21:08.769Z,8.15
2022-08-09T14:26:06.677Z,2.70
2022-08-09T14:31:07.973Z,2.97
2022-08-09T14:36:20.886Z,2.60
2022-08-09T14:46:55.485Z,2.90
2022-08-09T14:51:59.013Z,2.67
2022-08-09T14:56:58.872Z,2.88
2022-08-09T15:01:57.210Z,3.10
2022-08-09T15:06:55.637Z,3.08
2022-08-09T15:11:52.664Z,3.30
2022-08-09T15:16:50.748Z,3.05
2022-08-09T15:21:54.683Z,3.60
2022-08-09T15:26:59.809Z,3.03
2022-08-09T15:32:00.231Z,2.80
2022-08-09T15:37:10.095Z,3.78
2022-08-09T15:42:09.055Z,2.85
2022-08-09T15:47:07.550Z,2.80
2022-08-09T15:52:15.312Z,3.00
2022-08-09T16:02:38.657Z,2.40
2022-08-09T16:07:49.489Z,2.40
2022-08-09T16:12:53.502Z,2.30
2022-08-09T16:17:52.904Z,2.70
2022-08-09T16:22:53.421Z,2.60
2022-08-09T16:28:44.762Z,2.47
2022-08-09T16:33:52.769Z,2.40
2022-08-09T16:38:53.368Z,2.92
2022-08-09T16:43:52.181Z,2.72
2022-08-09T16:49:05.933Z,2.78
2022-08-09T16:55:04.129Z,3.30
2022-08-09T17:00:09.691Z,2.67
2022-08-09T17:06:08.007Z,3.40
2022-08-09T17:11:24.541Z,2.40
2022-08-09T17:16:45.004Z,3.20
2022-08-09T17:22:07.833Z,4.65
2022-08-09T17:27:18.418Z,7.70
2022-08-09T17:32:20.257Z,2.60
2022-08-09T17:38:32.910Z,2.85
2022-08-09T17:44:38.840Z,3.83
2022-08-09T17:49:50.803Z,3.42
2022-08-09T17:55:05.662Z,3.95
2022-08-09T18:00:10.126Z,5.53
2022-08-09T18:05:22.251Z,4.13
2022-08-09T18:10:31.645Z,4.47
2022-08-09T18:16:05.421Z,4.00
2022-08-09T18:21:23.565Z,3.30
2022-08-09T18:26:37.898Z,3.08
2022-08-09T18:31:55.951Z,3.28
2022-08-09T18:37:10.515Z,2.33
2022-08-09T18:42:31.055Z,2.63
2022-08-09T18:47:50.099Z,4.05
2022-08-09T18:53:07.306Z,4.38
2022-08-09T18:58:12.804Z,5.15
2022-08-09T19:03:29.753Z,4.95
2022-08-09T19:10:12.816Z,4.10
2022-08-09T19:14:49.166Z,4.10
2022-08-09T19:20:00.778Z,3.60
2022-08-09T19:30:28.245Z,4.50
2022-08-09T19:35:56.714Z,4.47
2022-08-09T19:41:04.598Z,3.47
2022-08-09T19:46:14.393Z,3.30
2022-08-09T19:51:16.529Z,3.35
2022-08-09T19:56:18.520Z,3.80
2022-08-09T20:01:28.117Z,5.93
2022-08-09T20:06:45.523Z,4.22
2022-08-09T20:11:55.588Z,3.67
2022-08-09T20:17:00.015Z,3.60
2022-08-09T20:22:10.207Z,3.83
2022-08-09T20:27:17.090Z,3.85
2022-08-09T20:32:33.859Z,3.85
2022-08-09T20:38:20.710Z,4.15
2022-08-09T20:43:18.493Z,3.65
2022-08-09T20:48:21.920Z,3.40
2022-08-09T20:53:36.662Z,3.70
2022-08-09T20:58:43.532Z,3.80
2022-08-09T21:05:48.942Z,3.53
2022-08-09T21:08:58.836Z,3.90
2022-08-09T21:14:00.557Z,3.67
2022-08-09T21:19:08.287Z,4.00
2022-08-09T21:24:28.538Z,5.28
2022-08-09T21:29:30.477Z,6.03
2022-08-09T21:34:54.807Z,6.70
2022-08-09T21:39:54.362Z,5.55
2022-08-09T21:44:56.683Z,5.70
2022-08-09T21:49:54.418Z,6.75
2022-08-09T21:55:10.313Z,7.07
2022-08-09T22:00:26.005Z,6.35
2022-08-09T22:05:37.106Z,5.38
2022-08-09T22:10:36.027Z,7.38
2022-08-09T22:15:55.787Z,8.30
2022-08-09T22:20:55.897Z,8.60
2022-08-09T22:26:05.462Z,10.98
2022-08-09T22:31:06.622Z,7.53
2022-08-09T22:36:04.851Z,7.43
2022-08-09T22:48:14.692Z,5.95
2022-08-09T22:51:38.275Z,5.60
2022-08-09T22:56:36.802Z,6.47
2022-08-09T23:01:35.116Z,7.38
2022-08-09T23:06:47.031Z,8.68
2022-08-09T23:11:48.760Z,4.78
2022-08-09T23:16:46.845Z,4.00
2022-08-09T23:22:03.740Z,4.50
2022-08-09T23:27:01.052Z,4.28
2022-08-09T23:31:59.148Z,4.07
2022-08-09T23:36:56.577Z,3.90
2022-08-09T23:41:55.122Z,3.90
2022-08-09T23:46:52.747Z,3.88
2022-08-09T23:51:59.315Z,4.78
2022-08-09T23:56:58.090Z,3.58
